createdAt,value
2023-05-19T06:21:24.738Z,2.15
2023-05-19T06:24:26.891Z,1.80
2023-05-19T06:27:28.572Z,1.92
2023-05-19T06:30:30.548Z,1.67
2023-05-19T06:33:51.529Z,1.50
2023-05-19T06:36:53.373Z,1.58
2023-05-19T06:39:55.025Z,1.70
2023-05-19T06:42:56.586Z,1.60
2023-05-19T06:46:08.660Z,1.40
2023-05-19T20:49:49.375Z,1.25
2023-05-19T20:52:50.967Z,0.90
2023-05-19T20:55:52.478Z,1.20
2023-05-19T20:58:53.998Z,1.15
2023-05-19T21:01:55.627Z,1.15
2023-05-19T21:04:57.309Z,1.13
2023-05-19T21:07:58.867Z,0.85
2023-05-19T21:11:00.440Z,0.82
2023-05-19T21:14:04.083Z,1.05
2023-05-19T21:17:07.117Z,1.08
2023-05-19T21:20:09.389Z,1.10
2023-05-19T21:23:11.132Z,1.02
2023-05-19T21:26:12.688Z,0.90
2023-05-19T21:29:14.209Z,0.93
2023-05-19T21:32:15.897Z,1.13
2023-05-19T21:35:17.457Z,1.02
2023-05-19T21:38:23.918Z,1.20
2023-05-19T21:41:26.049Z,1.13
2023-05-19T21:44:27.622Z,0.85
2023-05-19T21:47:29.160Z,1.00
2023-05-19T21:50:30.684Z,1.15
2023-05-19T21:53:32.808Z,1.05
2023-05-19T21:56:34.365Z,1.20
2023-05-19T21:59:35.857Z,0.93
2023-05-19T22:02:37.508Z,0.98
2023-05-19T22:05:39.142Z,1.10
2023-05-19T22:08:40.758Z,1.08
2023-05-19T22:11:42.341Z,1.30
2023-05-19T22:14:43.921Z,1.10
2023-05-19T22:17:45.529Z,1.40
2023-05-19T22:20:47.115Z,1.10
2023-05-19T22:23:48.688Z,1.15
2023-05-19T22:26:50.330Z,1.10
2023-05-19T22:29:51.858Z,1.30
2023-05-19T22:32:53.468Z,1.02
2023-05-19T22:35:55.638Z,1.27
2023-05-19T22:38:57.217Z,1.40
2023-05-19T22:41:58.755Z,1.23
2023-05-19T22:45:00.386Z,1.10
2023-05-19T22:48:02.768Z,1.00
2023-05-19T22:51:04.654Z,0.98
2023-05-19T22:54:06.824Z,1.00
2023-05-19T22:57:08.469Z,1.35
2023-05-19T23:00:13.888Z,1.10
2023-05-19T23:03:15.550Z,0.93
2023-05-19T23:06:17.102Z,1.25
2023-05-19T23:09:18.692Z,1.30
2023-05-19T23:12:20.482Z,1.10
2023-05-19T23:15:22.031Z,0.90
2023-05-19T23:18:23.676Z,0.90
2023-05-19T23:21:25.372Z,1.10
2023-05-19T23:24:26.926Z,1.33
2023-05-19T23:27:28.501Z,1.02
2023-05-19T23:30:30.416Z,1.02
2023-05-19T23:33:31.972Z,1.17
2023-05-19T23:36:33.582Z,1.02
2023-05-19T23:39:35.120Z,1.10
2023-05-19T23:42:37.067Z,1.00
2023-05-19T23:45:38.632Z,0.98
2023-05-19T23:48:43.133Z,0.98
2023-05-19T23:51:44.731Z,1.35
2023-05-19T23:54:46.304Z,0.80
2023-05-19T23:57:47.863Z,0.95
